Time;durP1;ratioP1;P1;durP2;ratioP2;P2;SDS_P1;SDS_P2;PMS_P1;PMS_P2;Temp;Humidity;BMP_temperature;BMP_pressure;BME280_temperature;BME280_humidity;BME280_pressure;Samples;Min_cycle;Max_cycle;Signal;HPM_P1;HPM_P2
2022/05/14 00:00:58;;;;;;;1.67;1.50;;;;;;;;;;5117980;28;20285;-58
2022/05/14 00:03:27;;;;;;;1.60;1.50;;;;;;;;;;5117748;28;20202;-58
2022/05/14 00:05:55;;;;;;;1.40;1.30;;;;;;;;;;5118191;28;20202;-60
2022/05/14 00:08:23;;;;;;;1.40;1.30;;;;;;;;;;5118280;28;20207;-59
2022/05/14 00:13:36;;;;;;;1.50;1.40;;;;;;;;;;5117820;28;20190;-59
2022/05/14 00:16:04;;;;;;;1.50;1.40;;;;;;;;;;5118469;28;20214;-59
2022/05/14 00:18:33;;;;;;;1.50;1.40;;;;;;;;;;5116437;28;20213;-58
2022/05/14 00:21:00;;;;;;;1.60;1.25;;;;;;;;;;5118086;28;20199;-58
2022/05/14 00:23:28;;;;;;;1.45;1.35;;;;;;;;;;5118101;28;20203;-58
2022/05/14 00:25:55;;;;;;;1.35;1.20;;;;;;;;;;5117944;28;20205;-59
2022/05/14 00:28:23;;;;;;;1.77;1.20;;;;;;;;;;5118285;28;20209;-59
2022/05/14 00:30:50;;;;;;;1.50;1.40;;;;;;;;;;5118157;28;20242;-59
2022/05/14 00:33:18;;;;;;;1.40;1.25;;;;;;;;;;5117920;28;20203;-58
2022/05/14 00:35:47;;;;;;;1.52;1.38;;;;;;;;;;5117261;28;20573;-58
2022/05/14 00:38:14;;;;;;;1.35;1.25;;;;;;;;;;5117596;28;20203;-58
2022/05/14 00:40:43;;;;;;;1.40;1.30;;;;;;;;;;5117646;28;20199;-58
2022/05/14 00:43:11;;;;;;;1.60;1.50;;;;;;;;;;5116855;28;20235;-58
2022/05/14 00:45:40;;;;;;;1.40;1.30;;;;;;;;;;5117743;28;20230;-58
2022/05/14 00:48:08;;;;;;;1.40;1.30;;;;;;;;;;5117724;28;20588;-59
2022/05/14 00:50:38;;;;;;;1.85;1.60;;;;;;;;;;5117613;28;20223;-58
2022/05/14 00:53:09;;;;;;;1.40;1.30;;;;;;;;;;5117079;28;20207;-59
2022/05/14 00:55:38;;;;;;;1.48;1.38;;;;;;;;;;5119487;28;20198;-58
2022/05/14 00:58:06;;;;;;;1.48;1.38;;;;;;;;;;5121744;28;20214;-58
2022/05/14 01:00:34;;;;;;;1.50;1.40;;;;;;;;;;5121698;28;20203;-58
2022/05/14 01:03:01;;;;;;;1.42;1.33;;;;;;;;;;5121466;28;20318;-59
2022/05/14 01:05:29;;;;;;;1.30;1.20;;;;;;;;;;5121616;28;20263;-58
2022/05/14 01:07:57;;;;;;;1.30;1.20;;;;;;;;;;5121611;28;20207;-59
2022/05/14 01:10:30;;;;;;;1.42;1.33;;;;;;;;;;5121952;28;20226;-58
2022/05/14 01:13:00;;;;;;;1.30;1.20;;;;;;;;;;5120464;28;20604;-59
2022/05/14 01:15:39;;;;;;;1.40;1.30;;;;;;;;;;5120770;28;20260;-58
2022/05/14 01:18:06;;;;;;;1.70;1.60;;;;;;;;;;5121635;28;20276;-58
2022/05/14 01:20:35;;;;;;;1.60;1.50;;;;;;;;;;5121787;28;20603;-58
2022/05/14 01:23:06;;;;;;;1.42;1.33;;;;;;;;;;5121742;28;20210;-58
2022/05/14 01:28:21;;;;;;;1.60;1.50;;;;;;;;;;5076829;28;20718;-59
2022/05/14 01:30:51;;;;;;;1.52;1.23;;;;;;;;;;5120332;28;20819;-59
2022/05/14 01:33:19;;;;;;;1.40;1.30;;;;;;;;;;5119980;28;20203;-58
2022/05/14 01:35:46;;;;;;;1.50;1.40;;;;;;;;;;5120999;28;20211;-58
2022/05/14 01:38:14;;;;;;;1.60;1.50;;;;;;;;;;5120832;28;20523;-59
2022/05/14 01:40:41;;;;;;;1.45;1.38;;;;;;;;;;5120831;28;20574;-58
2022/05/14 01:43:08;;;;;;;1.58;1.48;;;;;;;;;;5121182;28;20261;-59
2022/05/14 01:45:37;;;;;;;1.50;1.40;;;;;;;;;;5121255;28;20203;-59
2022/05/14 01:48:05;;;;;;;1.58;1.48;;;;;;;;;;5120069;28;20210;-58
2022/05/14 01:50:33;;;;;;;1.48;1.38;;;;;;;;;;5120235;28;20786;-58
2022/05/14 01:53:01;;;;;;;1.52;1.42;;;;;;;;;;5120487;28;20289;-58
2022/05/14 01:55:28;;;;;;;1.40;1.30;;;;;;;;;;5120923;28;20536;-58
2022/05/14 01:57:55;;;;;;;1.73;1.63;;;;;;;;;;5120355;28;20644;-58
2022/05/14 02:00:23;;;;;;;1.45;1.35;;;;;;;;;;5121057;28;20486;-59
2022/05/14 02:02:53;;;;;;;1.40;1.30;;;;;;;;;;5120929;28;20805;-58
2022/05/14 02:05:21;;;;;;;1.40;1.30;;;;;;;;;;5120676;28;20203;-58
2022/05/14 02:07:48;;;;;;;1.60;1.50;;;;;;;;;;5118811;28;20489;-58
2022/05/14 02:10:16;;;;;;;1.55;1.45;;;;;;;;;;5120075;28;20227;-58
2022/05/14 02:12:43;;;;;;;1.67;1.58;;;;;;;;;;5120154;28;20214;-58
2022/05/14 02:15:11;;;;;;;2.17;1.40;;;;;;;;;;5120288;28;20202;-58
2022/05/14 02:17:39;;;;;;;1.50;1.40;;;;;;;;;;5120079;28;20203;-58
2022/05/14 02:20:09;;;;;;;1.50;1.40;;;;;;;;;;5120035;28;20195;-58
2022/05/14 02:22:36;;;;;;;1.52;1.42;;;;;;;;;;5120113;28;20268;-58
2022/05/14 02:25:03;;;;;;;1.85;1.75;;;;;;;;;;5119381;28;20649;-58
2022/05/14 02:27:31;;;;;;;1.60;1.50;;;;;;;;;;5119840;28;20222;-58
2022/05/14 02:29:58;;;;;;;1.67;1.58;;;;;;;;;;5119752;28;20230;-58
2022/05/14 02:32:27;;;;;;;1.58;1.48;;;;;;;;;;5120063;28;20203;-58
2022/05/14 02:34:54;;;;;;;1.80;1.70;;;;;;;;;;5119337;28;20203;-58
2022/05/14 02:37:25;;;;;;;1.88;1.33;;;;;;;;;;5119986;28;20198;-59
2022/05/14 02:39:53;;;;;;;1.70;1.60;;;;;;;;;;5120192;28;20487;-59
2022/05/14 02:42:20;;;;;;;1.95;1.70;;;;;;;;;;5119319;28;20199;-58
2022/05/14 02:44:48;;;;;;;1.60;1.50;;;;;;;;;;5119495;28;20203;-58
2022/05/14 02:47:15;;;;;;;1.67;1.58;;;;;;;;;;5119319;28;20195;-58
2022/05/14 02:49:43;;;;;;;1.83;1.65;;;;;;;;;;5119911;28;20487;-58
2022/05/14 02:52:10;;;;;;;1.73;1.63;;;;;;;;;;5119682;28;20203;-59
2022/05/14 02:54:39;;;;;;;1.70;1.60;;;;;;;;;;5119649;28;20202;-58
2022/05/14 02:57:07;;;;;;;1.88;1.77;;;;;;;;;;5119948;28;20206;-58
2022/05/14 02:59:35;;;;;;;1.70;1.60;;;;;;;;;;5119293;28;20195;-58
2022/05/14 03:02:03;;;;;;;1.70;1.60;;;;;;;;;;5119088;28;20203;-58
2022/05/14 03:04:31;;;;;;;1.75;1.63;;;;;;;;;;5118901;28;20241;-58
2022/05/14 03:06:59;;;;;;;2.13;1.58;;;;;;;;;;5119011;28;20214;-58
2022/05/14 03:09:26;;;;;;;1.75;1.65;;;;;;;;;;5119346;28;20202;-59
2022/05/14 03:11:55;;;;;;;1.70;1.60;;;;;;;;;;5119482;28;20223;-59
2022/05/14 03:14:23;;;;;;;1.50;1.40;;;;;;;;;;5119187;28;20199;-59
2022/05/14 03:16:51;;;;;;;1.90;1.80;;;;;;;;;;5119703;28;20203;-58
2022/05/14 03:19:18;;;;;;;1.90;1.50;;;;;;;;;;5118417;28;20209;-59
2022/05/14 03:21:46;;;;;;;1.73;1.63;;;;;;;;;;5118569;28;20198;-59
2022/05/14 03:24:13;;;;;;;1.70;1.60;;;;;;;;;;5119092;28;20203;-58
2022/05/14 03:26:41;;;;;;;1.88;1.70;;;;;;;;;;5119401;28;20213;-58
2022/05/14 03:29:09;;;;;;;1.73;1.63;;;;;;;;;;5119099;28;20203;-58
2022/05/14 03:31:37;;;;;;;1.40;1.30;;;;;;;;;;5118937;28;20507;-58
2022/05/14 03:34:05;;;;;;;1.70;1.60;;;;;;;;;;5119735;28;20210;-59
2022/05/14 03:36:33;;;;;;;1.70;1.60;;;;;;;;;;5119074;28;20602;-58
2022/05/14 03:39:00;;;;;;;2.08;1.58;;;;;;;;;;5119044;28;20211;-58
2022/05/14 03:41:28;;;;;;;1.55;1.45;;;;;;;;;;5118275;28;20202;-59
2022/05/14 03:43:56;;;;;;;1.58;1.48;;;;;;;;;;5118830;28;20234;-58
2022/05/14 03:46:24;;;;;;;1.60;1.50;;;;;;;;;;5118942;28;20203;-59
2022/05/14 03:48:52;;;;;;;1.63;1.50;;;;;;;;;;5119212;28;20203;-58
2022/05/14 03:51:19;;;;;;;1.70;1.60;;;;;;;;;;5118592;28;20226;-58
2022/05/14 03:53:47;;;;;;;1.80;1.70;;;;;;;;;;5118534;28;20302;-58
2022/05/14 03:56:15;;;;;;;2.20;1.40;;;;;;;;;;5118207;28;20210;-58
2022/05/14 03:58:43;;;;;;;1.58;1.48;;;;;;;;;;5117622;28;20226;-58
2022/05/14 04:01:10;;;;;;;1.83;1.58;;;;;;;;;;5118224;28;20207;-58
2022/05/14 04:03:39;;;;;;;1.70;1.60;;;;;;;;;;5118940;28;20203;-58
2022/05/14 04:06:06;;;;;;;1.60;1.50;;;;;;;;;;5118160;28;20582;-58
2022/05/14 04:08:34;;;;;;;1.50;1.40;;;;;;;;;;5118998;28;20203;-58
2022/05/14 04:11:02;;;;;;;1.70;1.60;;;;;;;;;;5118423;28;20227;-58
2022/05/14 04:13:29;;;;;;;1.73;1.63;;;;;;;;;;5118446;28;20206;-58
2022/05/14 04:15:56;;;;;;;1.60;1.50;;;;;;;;;;5117495;28;20566;-58
2022/05/14 04:18:25;;;;;;;1.70;1.60;;;;;;;;;;5118392;28;20203;-58
2022/05/14 04:20:54;;;;;;;1.73;1.63;;;;;;;;;;5117975;28;20468;-58
2022/05/14 04:23:22;;;;;;;1.70;1.60;;;;;;;;;;5118587;28;20226;-58
2022/05/14 04:25:51;;;;;;;1.50;1.40;;;;;;;;;;5117926;28;20206;-58
2022/05/14 04:28:18;;;;;;;1.70;1.60;;;;;;;;;;5117490;28;20582;-58
2022/05/14 04:30:46;;;;;;;1.52;1.42;;;;;;;;;;5113687;28;20226;-58
2022/05/14 04:33:14;;;;;;;1.55;1.45;;;;;;;;;;5121971;28;20230;-58
2022/05/14 04:35:41;;;;;;;1.60;1.50;;;;;;;;;;5122702;28;20474;-58
2022/05/14 04:38:10;;;;;;;1.85;1.67;;;;;;;;;;5122113;28;20213;-58
2022/05/14 04:40:38;;;;;;;1.52;1.42;;;;;;;;;;5122404;28;20198;-58
2022/05/14 04:43:06;;;;;;;1.77;1.67;;;;;;;;;;5122016;28;20644;-59
2022/05/14 04:45:33;;;;;;;1.42;1.33;;;;;;;;;;5122379;28;20203;-59
2022/05/14 04:48:01;;;;;;;1.60;1.50;;;;;;;;;;5122350;28;20220;-58
2022/05/14 04:50:28;;;;;;;1.60;1.50;;;;;;;;;;5120997;28;20202;-58
2022/05/14 04:52:55;;;;;;;1.67;1.58;;;;;;;;;;5121707;28;20593;-58
2022/05/14 04:55:24;;;;;;;1.60;1.50;;;;;;;;;;5122177;28;20203;-58
2022/05/14 04:57:52;;;;;;;1.80;1.70;;;;;;;;;;5121804;28;20206;-58
2022/05/14 05:00:19;;;;;;;1.50;1.40;;;;;;;;;;5121943;28;20613;-59
2022/05/14 05:05:32;;;;;;;1.65;1.55;;;;;;;;;;5121656;28;20290;-58
2022/05/14 05:08:00;;;;;;;1.85;1.75;;;;;;;;;;5121974;28;20455;-58
2022/05/14 05:10:29;;;;;;;1.52;1.42;;;;;;;;;;5121241;28;20206;-59
2022/05/14 05:12:56;;;;;;;1.63;1.52;;;;;;;;;;5121554;28;20230;-59
2022/05/14 05:15:24;;;;;;;1.73;1.63;;;;;;;;;;5121589;28;20600;-59
2022/05/14 05:17:51;;;;;;;1.60;1.50;;;;;;;;;;5121685;28;20214;-58
2022/05/14 05:20:19;;;;;;;1.50;1.40;;;;;;;;;;5121259;28;20194;-58
2022/05/14 05:22:48;;;;;;;1.60;1.50;;;;;;;;;;5121290;28;20241;-58
2022/05/14 05:25:15;;;;;;;1.60;1.50;;;;;;;;;;5121350;28;20210;-58
2022/05/14 05:27:44;;;;;;;1.52;1.40;;;;;;;;;;5121150;28;20214;-59
2022/05/14 05:30:12;;;;;;;1.60;1.50;;;;;;;;;;5121376;28;20207;-59
2022/05/14 05:32:39;;;;;;;1.70;1.60;;;;;;;;;;5120884;28;20617;-58
2022/05/14 05:35:08;;;;;;;1.60;1.50;;;;;;;;;;5120750;28;20210;-59
2022/05/14 05:37:35;;;;;;;1.60;1.50;;;;;;;;;;5121256;28;20207;-58
2022/05/14 05:40:03;;;;;;;1.40;1.30;;;;;;;;;;5121774;28;20461;-58
2022/05/14 05:42:31;;;;;;;1.50;1.40;;;;;;;;;;5120675;28;20226;-58
2022/05/14 05:45:00;;;;;;;1.60;1.50;;;;;;;;;;5121273;28;20207;-58
2022/05/14 05:47:27;;;;;;;1.70;1.60;;;;;;;;;;5120535;28;20195;-58
2022/05/14 05:49:54;;;;;;;1.30;1.30;;;;;;;;;;5120679;28;20289;-58
2022/05/14 05:52:22;;;;;;;1.27;1.23;;;;;;;;;;5120469;28;20222;-59
2022/05/14 05:57:37;;;;;;;1.45;1.35;;;;;;;;;;5086240;28;20195;-58
2022/05/14 06:00:08;;;;;;;1.70;1.60;;;;;;;;;;5120455;28;20209;-58
2022/05/14 06:02:36;;;;;;;1.50;1.40;;;;;;;;;;5119443;28;20282;-58
2022/05/14 06:05:04;;;;;;;1.50;1.40;;;;;;;;;;5120231;28;20199;-58
2022/05/14 06:07:31;;;;;;;1.63;1.52;;;;;;;;;;5119574;28;20203;-59
2022/05/14 06:09:58;;;;;;;1.35;1.25;;;;;;;;;;5119728;28;20582;-59
2022/05/14 06:12:26;;;;;;;1.33;1.23;;;;;;;;;;5120674;28;20745;-59
2022/05/14 06:14:53;;;;;;;1.75;1.65;;;;;;;;;;5120117;28;20206;-59
2022/05/14 06:17:22;;;;;;;1.58;1.48;;;;;;;;;;5119478;28;20486;-58
2022/05/14 06:19:50;;;;;;;1.60;1.50;;;;;;;;;;5119432;28;20213;-59
2022/05/14 06:22:17;;;;;;;1.45;1.35;;;;;;;;;;5119541;28;20205;-58
2022/05/14 06:24:44;;;;;;;1.45;1.35;;;;;;;;;;5118891;28;20230;-59
2022/05/14 06:27:12;;;;;;;1.60;1.50;;;;;;;;;;5118486;28;20206;-58
2022/05/14 06:29:39;;;;;;;1.52;1.42;;;;;;;;;;5119601;28;20214;-58
2022/05/14 06:32:07;;;;;;;1.35;1.25;;;;;;;;;;5119083;28;20620;-58
2022/05/14 06:34:35;;;;;;;1.70;1.60;;;;;;;;;;5120131;28;20202;-59
2022/05/14 06:37:03;;;;;;;1.40;1.30;;;;;;;;;;5119788;28;20218;-58
2022/05/14 06:39:31;;;;;;;1.63;1.52;;;;;;;;;;5119568;28;20210;-58
2022/05/14 06:41:58;;;;;;;1.85;1.33;;;;;;;;;;5118596;28;20301;-59
2022/05/14 06:44:26;;;;;;;1.40;1.30;;;;;;;;;;5114521;28;20231;-58
2022/05/14 06:46:53;;;;;;;1.50;1.40;;;;;;;;;;5118016;28;20240;-59
2022/05/14 06:49:20;;;;;;;1.70;1.60;;;;;;;;;;5119105;28;20199;-58
2022/05/14 06:51:50;;;;;;;1.98;1.80;;;;;;;;;;5118390;28;20511;-58
2022/05/14 06:54:17;;;;;;;2.60;1.70;;;;;;;;;;5119126;28;20210;-58
2022/05/14 06:56:45;;;;;;;1.58;1.48;;;;;;;;;;5118654;28;20203;-58
2022/05/14 06:59:14;;;;;;;1.80;1.40;;;;;;;;;;5118954;28;20294;-58
2022/05/14 07:01:42;;;;;;;1.67;1.55;;;;;;;;;;5118586;28;20210;-58
2022/05/14 07:06:58;;;;;;;1.52;1.42;;;;;;;;;;5118799;28;20189;-58
2022/05/14 07:09:27;;;;;;;1.50;1.40;;;;;;;;;;5118019;28;20222;-58
2022/05/14 07:11:56;;;;;;;1.40;1.30;;;;;;;;;;5108128;28;20227;-58
2022/05/14 07:14:24;;;;;;;1.55;1.45;;;;;;;;;;5118070;28;20203;-59
2022/05/14 07:16:53;;;;;;;1.63;1.40;;;;;;;;;;5117445;28;20214;-59
2022/05/14 07:19:20;;;;;;;1.52;1.20;;;;;;;;;;5117712;28;20213;-59
2022/05/14 07:21:48;;;;;;;1.40;1.17;;;;;;;;;;5117064;28;20221;-59
2022/05/14 07:24:18;;;;;;;1.33;1.23;;;;;;;;;;5117312;28;20203;-59
2022/05/14 07:26:46;;;;;;;1.40;1.30;;;;;;;;;;5116811;28;20225;-59
2022/05/14 07:29:15;;;;;;;1.30;1.20;;;;;;;;;;5117230;28;20203;-59
2022/05/14 07:31:42;;;;;;;1.00;1.00;;;;;;;;;;5116904;28;20219;-59
2022/05/14 07:34:10;;;;;;;1.40;1.30;;;;;;;;;;5116189;28;20206;-59
2022/05/14 07:36:40;;;;;;;1.35;1.20;;;;;;;;;;5116579;28;20203;-59
2022/05/14 07:39:08;;;;;;;1.38;1.27;;;;;;;;;;5115670;28;20206;-59
2022/05/14 07:41:39;;;;;;;1.05;1.05;;;;;;;;;;5116595;28;20571;-59
2022/05/14 07:44:09;;;;;;;1.25;1.15;;;;;;;;;;5115660;28;20237;-58
2022/05/14 07:46:38;;;;;;;1.40;1.30;;;;;;;;;;5116645;28;20206;-58
2022/05/14 07:49:08;;;;;;;2.17;1.30;;;;;;;;;;5116795;28;20195;-59
2022/05/14 07:51:35;;;;;;;1.23;1.10;;;;;;;;;;5117093;28;20226;-59
2022/05/14 07:54:03;;;;;;;1.25;1.15;;;;;;;;;;5116526;28;20198;-58
2022/05/14 07:56:30;;;;;;;1.30;1.10;;;;;;;;;;5116687;28;20203;-58
2022/05/14 07:58:59;;;;;;;2.53;1.50;;;;;;;;;;5116398;28;20201;-59
2022/05/14 08:01:26;;;;;;;1.80;1.10;;;;;;;;;;5116780;28;20199;-59
2022/05/14 08:03:54;;;;;;;1.20;1.10;;;;;;;;;;5116462;28;20207;-58
2022/05/14 08:06:22;;;;;;;1.15;1.05;;;;;;;;;;5115400;28;20206;-59
2022/05/14 08:08:51;;;;;;;1.17;1.08;;;;;;;;;;5116685;28;20522;-59
2022/05/14 08:11:18;;;;;;;1.20;1.10;;;;;;;;;;5116426;28;20214;-59
2022/05/14 08:13:46;;;;;;;3.25;1.30;;;;;;;;;;5116235;28;20226;-59
2022/05/14 08:16:15;;;;;;;1.50;1.27;;;;;;;;;;5113372;28;20237;-59
2022/05/14 08:18:42;;;;;;;1.10;1.00;;;;;;;;;;5110516;28;20601;-59
2022/05/14 08:26:40;;;;;;;1.33;1.15;;;;;;;;;;5115774;28;20186;-57
2022/05/14 08:29:07;;;;;;;2.20;1.05;;;;;;;;;;5115195;28;20229;-58
2022/05/14 08:31:36;;;;;;;1.27;1.17;;;;;;;;;;5114378;28;20213;-58
2022/05/14 08:34:04;;;;;;;1.88;1.20;;;;;;;;;;5115826;28;20276;-58
2022/05/14 08:36:32;;;;;;;2.90;1.30;;;;;;;;;;5114514;28;20240;-57
2022/05/14 08:38:59;;;;;;;1.88;0.98;;;;;;;;;;5114876;28;20597;-59
2022/05/14 08:41:27;;;;;;;2.15;1.35;;;;;;;;;;5114864;28;20339;-60
2022/05/14 08:43:56;;;;;;;1.30;1.20;;;;;;;;;;5114910;28;20241;-60
2022/05/14 08:46:25;;;;;;;1.50;1.10;;;;;;;;;;5114966;28;20203;-59
2022/05/14 08:48:55;;;;;;;2.20;1.20;;;;;;;;;;5114535;28;20206;-60
2022/05/14 08:51:24;;;;;;;1.10;1.00;;;;;;;;;;5115892;28;20217;-60
2022/05/14 08:53:52;;;;;;;1.23;1.00;;;;;;;;;;5114584;28;20209;-60
2022/05/14 08:56:36;;;;;;;4.22;1.50;;;;;;;;;;5115435;28;20209;-60
2022/05/14 08:59:22;;;;;;;3.53;1.58;;;;;;;;;;5114255;28;20264;-60
2022/05/14 09:01:51;;;;;;;3.25;1.30;;;;;;;;;;5115418;28;20195;-60
2022/05/14 09:04:22;;;;;;;2.10;1.30;;;;;;;;;;5116152;28;20578;-60
2022/05/14 09:06:50;;;;;;;2.47;1.10;;;;;;;;;;5114692;28;20203;-60
2022/05/14 09:09:19;;;;;;;1.98;1.48;;;;;;;;;;5114604;28;20493;-59
2022/05/14 09:11:53;;;;;;;1.67;1.10;;;;;;;;;;5114767;28;20202;-59
2022/05/14 09:14:22;;;;;;;1.75;1.27;;;;;;;;;;5115025;28;20209;-58
2022/05/14 09:16:51;;;;;;;1.90;1.27;;;;;;;;;;5117569;28;20214;-60
2022/05/14 09:19:24;;;;;;;2.08;1.33;;;;;;;;;;5117279;28;20195;-60
2022/05/14 09:21:53;;;;;;;2.13;1.30;;;;;;;;;;5117261;28;20651;-60
2022/05/14 09:24:25;;;;;;;1.27;1.15;;;;;;;;;;5116615;28;20203;-60
2022/05/14 09:26:53;;;;;;;2.22;1.35;;;;;;;;;;5115933;28;20613;-59
2022/05/14 09:29:23;;;;;;;2.55;1.60;;;;;;;;;;5117714;28;20203;-59
2022/05/14 09:31:53;;;;;;;2.65;1.50;;;;;;;;;;5115715;28;20214;-59
2022/05/14 09:34:22;;;;;;;2.15;1.40;;;;;;;;;;5116995;28;20210;-60
2022/05/14 09:36:51;;;;;;;2.17;1.40;;;;;;;;;;5117188;28;20199;-60
2022/05/14 09:39:19;;;;;;;2.80;1.83;;;;;;;;;;5117326;28;20203;-60
2022/05/14 09:41:48;;;;;;;2.45;1.42;;;;;;;;;;5117674;28;20195;-60
2022/05/14 09:44:17;;;;;;;2.70;1.40;;;;;;;;;;5116124;28;20265;-59
2022/05/14 09:46:45;;;;;;;2.33;1.40;;;;;;;;;;5117222;28;20500;-59
2022/05/14 09:49:20;;;;;;;1.98;1.40;;;;;;;;;;5116736;28;20203;-59
2022/05/14 09:51:52;;;;;;;1.40;1.25;;;;;;;;;;5116418;28;20791;-59
2022/05/14 09:54:22;;;;;;;2.78;1.35;;;;;;;;;;5117373;28;20195;-68
2022/05/14 09:57:08;;;;;;;4.50;1.48;;;;;;;;;;5116402;28;20275;-59
2022/05/14 09:59:42;;;;;;;1.30;1.20;;;;;;;;;;5099555;28;20206;-59
2022/05/14 10:02:14;;;;;;;1.77;1.25;;;;;;;;;;5116236;28;20190;-59
2022/05/14 10:04:53;;;;;;;2.20;1.30;;;;;;;;;;5116874;28;20199;-59
2022/05/14 10:07:24;;;;;;;1.42;1.30;;;;;;;;;;5117381;28;20612;-59
2022/05/14 10:09:56;;;;;;;2.20;1.40;;;;;;;;;;5116041;28;20207;-60
2022/05/14 10:12:26;;;;;;;2.45;1.40;;;;;;;;;;5117217;28;20342;-60
2022/05/14 10:14:58;;;;;;;1.88;1.50;;;;;;;;;;5117445;28;20578;-59
2022/05/14 10:17:35;;;;;;;2.28;1.58;;;;;;;;;;5117314;28;20206;-59
2022/05/14 10:20:13;;;;;;;2.03;1.40;;;;;;;;;;5116865;28;20294;-59
2022/05/14 10:28:25;;;;;;;1.40;1.30;;;;;;;;;;5073413;28;20191;-60
2022/05/14 10:30:56;;;;;;;1.50;1.40;;;;;;;;;;5117349;28;20690;-59
2022/05/14 10:33:26;;;;;;;1.40;1.30;;;;;;;;;;5117299;28;20250;-59
2022/05/14 10:35:57;;;;;;;1.88;1.23;;;;;;;;;;5116896;28;20252;-59
2022/05/14 10:38:27;;;;;;;1.92;1.20;;;;;;;;;;5116956;28;20214;-60
2022/05/14 10:40:56;;;;;;;1.40;1.30;;;;;;;;;;5116861;28;20219;-60
2022/05/14 10:43:31;;;;;;;1.35;1.17;;;;;;;;;;5106659;28;20242;-60
2022/05/14 10:45:59;;;;;;;1.73;1.30;;;;;;;;;;5095679;28;20199;-59
2022/05/14 10:48:35;;;;;;;1.42;1.20;;;;;;;;;;5095906;28;20204;-59
2022/05/14 10:51:04;;;;;;;1.42;1.30;;;;;;;;;;5096975;28;20205;-57
2022/05/14 10:53:34;;;;;;;1.35;1.25;;;;;;;;;;5096896;28;20223;-59
2022/05/14 10:56:03;;;;;;;2.70;1.40;;;;;;;;;;5095616;28;20203;-59
2022/05/14 10:58:39;;;;;;;1.50;1.20;;;;;;;;;;5096023;28;20226;-59
2022/05/14 11:01:08;;;;;;;1.77;1.48;;;;;;;;;;5096033;28;20283;-59
2022/05/14 11:03:36;;;;;;;3.58;1.52;;;;;;;;;;5096289;28;20206;-59
2022/05/14 11:06:12;;;;;;;2.60;1.67;;;;;;;;;;5096953;28;20222;-58
2022/05/14 11:08:41;;;;;;;2.28;1.40;;;;;;;;;;5095008;28;20204;-58
2022/05/14 11:11:11;;;;;;;2.47;1.60;;;;;;;;;;5095679;28;20210;-59
2022/05/14 11:13:39;;;;;;;3.30;1.80;;;;;;;;;;5095523;28;20234;-60
2022/05/14 11:16:09;;;;;;;2.80;1.58;;;;;;;;;;5096124;28;20265;-59
2022/05/14 11:18:47;;;;;;;2.38;1.58;;;;;;;;;;5094547;28;20196;-58
2022/05/14 11:21:15;;;;;;;3.33;1.60;;;;;;;;;;5094329;28;20196;-58
2022/05/14 11:23:54;;;;;;;1.80;1.40;;;;;;;;;;5095604;28;20207;-58
2022/05/14 11:26:22;;;;;;;2.38;1.80;;;;;;;;;;5095142;28;20203;-58
2022/05/14 11:28:57;;;;;;;3.53;1.60;;;;;;;;;;5094173;28;20506;-58
2022/05/14 11:31:26;;;;;;;2.90;1.60;;;;;;;;;;5095357;28;20214;-58
2022/05/14 11:33:55;;;;;;;2.63;1.50;;;;;;;;;;5093490;28;20526;-58
2022/05/14 11:36:24;;;;;;;2.70;1.50;;;;;;;;;;5094188;28;20203;-58
2022/05/14 11:39:08;;;;;;;3.10;1.55;;;;;;;;;;5092310;28;20470;-58
2022/05/14 11:41:36;;;;;;;2.63;1.60;;;;;;;;;;5093163;28;20199;-58
2022/05/14 11:44:06;;;;;;;1.67;1.58;;;;;;;;;;5109833;28;20279;-60
2022/05/14 11:46:36;;;;;;;2.50;1.25;;;;;;;;;;5114294;28;20214;-58
2022/05/14 11:49:05;;;;;;;2.17;1.50;;;;;;;;;;5113137;28;20202;-58
2022/05/14 11:51:37;;;;;;;1.95;1.33;;;;;;;;;;5114341;28;20234;-58
2022/05/14 11:54:07;;;;;;;2.38;1.35;;;;;;;;;;5113698;28;20218;-58
2022/05/14 11:56:39;;;;;;;2.35;1.48;;;;;;;;;;5113486;28;20516;-58
2022/05/14 11:59:09;;;;;;;2.78;1.63;;;;;;;;;;5113094;28;20479;-58
2022/05/14 12:01:39;;;;;;;3.03;1.80;;;;;;;;;;5114287;28;20214;-58
2022/05/14 12:04:11;;;;;;;2.95;1.50;;;;;;;;;;5112973;28;20480;-58
2022/05/14 12:06:47;;;;;;;4.38;1.58;;;;;;;;;;5113262;28;20203;-58
2022/05/14 12:09:23;;;;;;;1.90;1.45;;;;;;;;;;5113479;28;20206;-58
2022/05/14 12:11:56;;;;;;;1.70;1.42;;;;;;;;;;5114098;28;20213;-58
2022/05/14 12:14:30;;;;;;;2.50;1.45;;;;;;;;;;5113953;28;20215;-58
2022/05/14 12:16:58;;;;;;;2.92;1.50;;;;;;;;;;5111926;28;20314;-58
2022/05/14 12:19:27;;;;;;;1.90;1.33;;;;;;;;;;5111569;28;20281;-58
2022/05/14 12:21:56;;;;;;;1.58;1.30;;;;;;;;;;5112730;28;20207;-58
2022/05/14 12:24:24;;;;;;;2.50;1.40;;;;;;;;;;5112400;28;20530;-58
2022/05/14 12:26:53;;;;;;;1.98;1.55;;;;;;;;;;5111006;28;20222;-58
2022/05/14 12:29:22;;;;;;;1.85;1.45;;;;;;;;;;5112229;28;20203;-58
2022/05/14 12:34:43;;;;;;;1.95;1.52;;;;;;;;;;5114293;28;20311;-58
2022/05/14 12:37:18;;;;;;;2.35;1.13;;;;;;;;;;5114938;28;20226;-58
2022/05/14 12:39:45;;;;;;;1.92;1.33;;;;;;;;;;5115851;28;20199;-58
2022/05/14 12:42:15;;;;;;;2.92;1.42;;;;;;;;;;5115820;28;20203;-58
2022/05/14 12:44:44;;;;;;;1.52;1.23;;;;;;;;;;5109515;28;20276;-58
2022/05/14 12:47:12;;;;;;;1.85;1.40;;;;;;;;;;5093732;28;20204;-58
2022/05/14 12:49:45;;;;;;;1.92;1.15;;;;;;;;;;5094277;28;20207;-58
2022/05/14 12:52:14;;;;;;;2.00;1.38;;;;;;;;;;5095523;28;20349;-58
2022/05/14 12:54:48;;;;;;;1.75;1.40;;;;;;;;;;5096236;28;20231;-59
2022/05/14 12:57:18;;;;;;;1.58;1.33;;;;;;;;;;5096322;28;20195;-58
2022/05/14 12:59:45;;;;;;;1.65;1.17;;;;;;;;;;5096261;28;20208;-58
2022/05/14 13:02:14;;;;;;;1.30;1.15;;;;;;;;;;5095928;28;20203;-58
2022/05/14 13:04:43;;;;;;;1.92;1.27;;;;;;;;;;5095249;28;20653;-58
2022/05/14 13:07:12;;;;;;;1.75;1.25;;;;;;;;;;5096373;28;20490;-58
2022/05/14 13:09:41;;;;;;;1.95;1.05;;;;;;;;;;5096702;28;20238;-58
2022/05/14 13:12:09;;;;;;;2.50;1.42;;;;;;;;;;5096574;28;20536;-58
2022/05/14 13:14:39;;;;;;;2.72;1.27;;;;;;;;;;5096905;28;20223;-58
2022/05/14 13:17:07;;;;;;;1.90;1.17;;;;;;;;;;5097435;28;20195;-58
2022/05/14 13:19:39;;;;;;;2.03;1.20;;;;;;;;;;5097504;28;20211;-59
2022/05/14 13:22:08;;;;;;;1.73;1.00;;;;;;;;;;5097957;28;20204;-58
2022/05/14 13:24:37;;;;;;;3.53;1.02;;;;;;;;;;5096731;28;20225;-58
2022/05/14 13:27:09;;;;;;;3.05;1.40;;;;;;;;;;5094899;28;20517;-58
2022/05/14 13:29:40;;;;;;;2.08;1.27;;;;;;;;;;5097494;28;20203;-59
2022/05/14 13:32:09;;;;;;;1.67;1.23;;;;;;;;;;5097585;28;20203;-58
2022/05/14 13:37:25;;;;;;;1.55;1.00;;;;;;;;;;5096697;28;20195;-58
2022/05/14 13:39:53;;;;;;;1.30;1.13;;;;;;;;;;5094438;28;20200;-58
2022/05/14 13:42:23;;;;;;;1.65;1.20;;;;;;;;;;5093358;28;20215;-58
2022/05/14 13:44:56;;;;;;;1.80;1.00;;;;;;;;;;5094582;28;20590;-58
2022/05/14 13:47:23;;;;;;;1.83;1.10;;;;;;;;;;5095626;28;20199;-58
2022/05/14 13:49:55;;;;;;;2.22;1.10;;;;;;;;;;5089415;28;20228;-58
2022/05/14 13:52:29;;;;;;;1.85;1.10;;;;;;;;;;5093889;28;20226;-60
2022/05/14 13:55:05;;;;;;;1.88;1.25;;;;;;;;;;5094938;28;20222;-58
2022/05/14 13:57:33;;;;;;;3.28;1.20;;;;;;;;;;5094537;28;20509;-58
2022/05/14 14:00:08;;;;;;;1.38;1.15;;;;;;;;;;5094599;28;20200;-58
2022/05/14 14:02:35;;;;;;;2.80;1.27;;;;;;;;;;5094214;28;20244;-58
2022/05/14 14:05:04;;;;;;;1.23;1.13;;;;;;;;;;5094054;28;20333;-58
2022/05/14 14:07:35;;;;;;;2.17;1.17;;;;;;;;;;5094645;28;20204;-58
2022/05/14 14:10:10;;;;;;;1.83;1.10;;;;;;;;;;5096001;28;20586;-59
2022/05/14 14:12:37;;;;;;;2.05;1.30;;;;;;;;;;5093509;28;20207;-59
2022/05/14 14:15:07;;;;;;;1.52;1.15;;;;;;;;;;5095262;28;20553;-58
2022/05/14 14:17:35;;;;;;;2.47;1.10;;;;;;;;;;5095732;28;20212;-58
2022/05/14 14:20:02;;;;;;;2.83;1.05;;;;;;;;;;5094361;28;20203;-59
2022/05/14 14:22:30;;;;;;;2.67;1.33;;;;;;;;;;5094669;28;20211;-59
2022/05/14 14:24:57;;;;;;;3.75;1.30;;;;;;;;;;5095192;28;20294;-61
2022/05/14 14:27:26;;;;;;;2.20;1.30;;;;;;;;;;5094224;28;20204;-59
2022/05/14 14:29:57;;;;;;;1.85;1.08;;;;;;;;;;5093596;28;20211;-59
2022/05/14 14:32:27;;;;;;;3.33;1.30;;;;;;;;;;5094550;28;20494;-59
2022/05/14 14:34:54;;;;;;;2.28;1.20;;;;;;;;;;5094876;28;20319;-59
2022/05/14 14:37:22;;;;;;;2.65;1.40;;;;;;;;;;5094658;28;20204;-59
2022/05/14 14:39:50;;;;;;;2.55;1.10;;;;;;;;;;5093946;28;20530;-59
2022/05/14 14:42:18;;;;;;;1.80;1.23;;;;;;;;;;5093337;28;20239;-58
2022/05/14 14:44:46;;;;;;;2.45;1.40;;;;;;;;;;5093839;28;20210;-59
2022/05/14 14:47:13;;;;;;;1.45;1.10;;;;;;;;;;5093392;28;20265;-59
2022/05/14 14:49:43;;;;;;;1.50;1.10;;;;;;;;;;5094220;28;20203;-59
2022/05/14 14:52:12;;;;;;;1.42;1.23;;;;;;;;;;5093939;28;20208;-59
2022/05/14 14:54:41;;;;;;;2.03;1.33;;;;;;;;;;5095295;28;20230;-59
2022/05/14 14:57:09;;;;;;;1.50;1.10;;;;;;;;;;5095322;28;20210;-59
2022/05/14 14:59:36;;;;;;;2.47;1.58;;;;;;;;;;5094195;28;20207;-59
2022/05/14 15:02:06;;;;;;;2.88;1.38;;;;;;;;;;5093325;28;20207;-59
2022/05/14 15:04:34;;;;;;;2.58;1.52;;;;;;;;;;5094116;28;20196;-59
2022/05/14 15:07:05;;;;;;;3.15;1.27;;;;;;;;;;5094446;28;20227;-59
2022/05/14 15:09:33;;;;;;;3.42;1.30;;;;;;;;;;5093314;28;20261;-59
2022/05/14 15:12:00;;;;;;;1.30;1.10;;;;;;;;;;5093366;28;20548;-59
2022/05/14 15:14:28;;;;;;;2.55;1.30;;;;;;;;;;5092011;28;20230;-59
2022/05/14 15:16:56;;;;;;;2.35;1.30;;;;;;;;;;5092999;28;20276;-59
2022/05/14 15:19:23;;;;;;;2.40;1.23;;;;;;;;;;5092999;28;20215;-59
2022/05/14 15:21:50;;;;;;;1.33;1.20;;;;;;;;;;5092482;28;20511;-59
2022/05/14 15:24:19;;;;;;;2.58;1.63;;;;;;;;;;5091918;28;20191;-59